Time;durP1;ratioP1;P1;durP2;ratioP2;P2;SDS_P1;SDS_P2;PMS_P1;PMS_P2;Temp;Humidity;BMP_temperature;BMP_pressure;BME280_temperature;BME280_humidity;BME280_pressure;Samples;Min_cycle;Max_cycle;Signal;HPM_P1;HPM_P2
2022/06/28 00:02:13;;;;;;;2.72;1.85;;;;;;;;;;5015045;28;20472;-86
2022/06/28 00:04:38;;;;;;;2.55;1.70;;;;;;;;;;5013465;28;20052;-87
2022/06/28 00:07:04;;;;;;;2.60;1.80;;;;;;;;;;5013299;28;20165;-87
2022/06/28 00:09:29;;;;;;;2.63;1.67;;;;;;;;;;5013052;28;20037;-87
2022/06/28 00:11:54;;;;;;;2.50;1.67;;;;;;;;;;5013634;28;20535;-87
2022/06/28 00:17:04;;;;;;;;;;;;;;;;;;5014250;28;20057;-88
2022/06/28 00:19:30;;;;;;;4.55;1.90;;;;;;;;;;5013555;28;20364;-86
2022/06/28 00:21:56;;;;;;;2.85;1.63;;;;;;;;;;4997133;28;20033;-87
2022/06/28 00:24:21;;;;;;;2.10;1.58;;;;;;;;;;4980242;28;20496;-86
2022/06/28 00:26:48;;;;;;;1.95;1.50;;;;;;;;;;5013624;28;20160;-87
2022/06/28 00:29:14;;;;;;;2.65;1.58;;;;;;;;;;4996964;28;20080;-87
2022/06/28 00:31:39;;;;;;;4.55;1.77;;;;;;;;;;5014152;28;20080;-86
2022/06/28 00:34:05;;;;;;;2.83;1.70;;;;;;;;;;4997073;28;20037;-87
2022/06/28 00:36:32;;;;;;;3.85;1.77;;;;;;;;;;5012918;28;20030;-87
2022/06/28 00:38:58;;;;;;;3.70;1.80;;;;;;;;;;5012861;28;20018;-87
2022/06/28 00:41:23;;;;;;;2.03;1.55;;;;;;;;;;5012932;28;20057;-88
2022/06/28 00:43:49;;;;;;;2.10;1.52;;;;;;;;;;5014008;28;20084;-88
2022/06/28 00:46:14;;;;;;;2.38;1.45;;;;;;;;;;5012859;28;20435;-88
2022/06/28 00:48:40;;;;;;;6.75;1.90;;;;;;;;;;4980350;28;20030;-88
2022/06/28 00:51:08;;;;;;;2.22;1.45;;;;;;;;;;5012526;28;20503;-87
2022/06/28 00:53:33;;;;;;;3.05;1.70;;;;;;;;;;4996907;28;20022;-87
2022/06/28 00:55:58;;;;;;;2.58;1.40;;;;;;;;;;5013400;28;20033;-87
2022/06/28 00:58:24;;;;;;;2.55;1.33;;;;;;;;;;4996396;28;20115;-87
2022/06/28 01:00:49;;;;;;;1.38;1.23;;;;;;;;;;5012949;28;20030;-87
2022/06/28 01:03:21;;;;;;;1.83;1.40;;;;;;;;;;5012246;28;20038;-87
2022/06/28 01:05:49;;;;;;;2.00;1.50;;;;;;;;;;5012436;28;20562;-87
2022/06/28 01:08:14;;;;;;;4.22;1.73;;;;;;;;;;5012784;28;20033;-87
2022/06/28 01:10:40;;;;;;;4.13;1.70;;;;;;;;;;5013718;28;20041;-87
2022/06/28 01:13:06;;;;;;;2.17;1.90;;;;;;;;;;5012268;28;20021;-87
2022/06/28 01:15:32;;;;;;;3.22;1.70;;;;;;;;;;5014205;28;20034;-87
2022/06/28 01:18:02;;;;;;;2.72;1.65;;;;;;;;;;5012229;28;20018;-87
2022/06/28 01:20:27;;;;;;;3.88;1.70;;;;;;;;;;5013649;28;20065;-87
2022/06/28 01:22:54;;;;;;;3.35;1.90;;;;;;;;;;5013688;28;20034;-87
2022/06/28 01:25:21;;;;;;;3.22;1.70;;;;;;;;;;5011991;28;20018;-87
2022/06/28 01:27:47;;;;;;;3.80;1.83;;;;;;;;;;5012528;28;20523;-86
2022/06/28 01:30:13;;;;;;;2.55;1.75;;;;;;;;;;5013131;28;20034;-86
2022/06/28 01:32:38;;;;;;;3.25;2.00;;;;;;;;;;5012233;28;20033;-87
2022/06/28 01:35:04;;;;;;;2.92;1.90;;;;;;;;;;5012044;28;20044;-87
2022/06/28 01:37:30;;;;;;;4.97;1.92;;;;;;;;;;5012348;28;20025;-87
2022/06/28 01:39:56;;;;;;;3.97;1.67;;;;;;;;;;4995794;28;20119;-87
2022/06/28 01:42:21;;;;;;;3.28;1.90;;;;;;;;;;4995948;28;20054;-87
2022/06/28 01:44:48;;;;;;;2.85;1.63;;;;;;;;;;5013274;28;20050;-87
2022/06/28 01:47:13;;;;;;;3.53;1.85;;;;;;;;;;5012117;28;20125;-87
2022/06/28 01:49:39;;;;;;;3.25;1.70;;;;;;;;;;5012454;28;20086;-86
2022/06/28 01:52:05;;;;;;;3.50;1.73;;;;;;;;;;5014336;28;20494;-87
2022/06/28 01:54:31;;;;;;;4.55;2.03;;;;;;;;;;4996371;28;20034;-87
2022/06/28 01:56:56;;;;;;;3.10;1.80;;;;;;;;;;5012270;28;20026;-86
2022/06/28 01:59:23;;;;;;;3.47;1.95;;;;;;;;;;5012268;28;20041;-87
2022/06/28 02:01:49;;;;;;;2.42;1.70;;;;;;;;;;5012312;28;20022;-86
2022/06/28 02:04:23;;;;;;;2.97;1.88;;;;;;;;;;5011937;28;20030;-86
2022/06/28 02:06:48;;;;;;;2.15;1.75;;;;;;;;;;5013170;28;20069;-86
2022/06/28 02:09:14;;;;;;;2.63;1.73;;;;;;;;;;4999021;28;20018;-85
2022/06/28 02:11:40;;;;;;;2.55;1.70;;;;;;;;;;5015578;28;20034;-86
2022/06/28 02:14:06;;;;;;;4.85;1.88;;;;;;;;;;5016664;28;20026;-86
2022/06/28 02:16:31;;;;;;;3.42;1.80;;;;;;;;;;5016924;28;20385;-85
2022/06/28 02:18:57;;;;;;;3.05;1.90;;;;;;;;;;5015039;28;20130;-85
2022/06/28 02:21:22;;;;;;;3.35;2.20;;;;;;;;;;5015440;28;20041;-85
2022/06/28 02:23:48;;;;;;;5.13;2.00;;;;;;;;;;5015324;28;20022;-86
2022/06/28 02:26:13;;;;;;;2.95;2.05;;;;;;;;;;5016278;28;20431;-85
2022/06/28 02:28:42;;;;;;;3.33;2.00;;;;;;;;;;5015089;28;20058;-85
2022/06/28 02:31:12;;;;;;;3.00;1.75;;;;;;;;;;5014994;28;20026;-86
2022/06/28 02:33:38;;;;;;;4.50;1.92;;;;;;;;;;5015050;28;20092;-86
2022/06/28 02:41:32;;;;;;;2.65;1.90;;;;;;;;;;5001176;28;20519;-86
2022/06/28 02:43:58;;;;;;;2.45;2.03;;;;;;;;;;5014465;28;20054;-86
2022/06/28 02:46:23;;;;;;;4.78;1.83;;;;;;;;;;4998353;28;20041;-86
2022/06/28 02:48:49;;;;;;;2.22;1.98;;;;;;;;;;5016137;28;20026;-86
2022/06/28 02:51:14;;;;;;;2.83;1.90;;;;;;;;;;5014666;28;20040;-86
2022/06/28 02:53:39;;;;;;;2.63;1.83;;;;;;;;;;4998612;28;20033;-86
2022/06/28 02:56:05;;;;;;;2.85;1.95;;;;;;;;;;5014581;28;20035;-86
2022/06/28 02:58:31;;;;;;;4.60;2.35;;;;;;;;;;5014406;28;20034;-85
2022/06/28 03:00:56;;;;;;;2.75;1.85;;;;;;;;;;5014953;28;20096;-85
2022/06/28 03:03:21;;;;;;;1.75;1.50;;;;;;;;;;5014221;28;20057;-86
2022/06/28 03:05:47;;;;;;;4.45;1.95;;;;;;;;;;5014747;28;20084;-86
2022/06/28 03:08:12;;;;;;;3.10;1.80;;;;;;;;;;4981647;28;20037;-86
2022/06/28 03:10:38;;;;;;;3.92;1.83;;;;;;;;;;5016527;28;20033;-86
2022/06/28 03:13:03;;;;;;;3.00;1.90;;;;;;;;;;5014120;28;20080;-86
2022/06/28 03:15:29;;;;;;;2.60;1.83;;;;;;;;;;5015695;28;20112;-86
2022/06/28 03:17:54;;;;;;;2.22;1.70;;;;;;;;;;5014010;28;20033;-86
2022/06/28 03:20:19;;;;;;;3.08;1.80;;;;;;;;;;4998145;28;20037;-86
2022/06/28 03:22:45;;;;;;;3.00;2.08;;;;;;;;;;5014301;28;20053;-87
2022/06/28 03:25:10;;;;;;;5.78;1.60;;;;;;;;;;5015159;28;20061;-86
2022/06/28 03:27:36;;;;;;;1.70;1.40;;;;;;;;;;5013935;28;20061;-87
2022/06/28 03:30:03;;;;;;;2.85;1.95;;;;;;;;;;5013810;28;20038;-86
2022/06/28 03:32:29;;;;;;;3.03;2.10;;;;;;;;;;5014273;28;20030;-86
2022/06/28 03:34:54;;;;;;;4.80;2.20;;;;;;;;;;4997332;28;20026;-85
2022/06/28 03:37:19;;;;;;;3.45;1.85;;;;;;;;;;5014612;28;20393;-85
2022/06/28 03:39:45;;;;;;;2.70;1.75;;;;;;;;;;5013932;28;20128;-86
2022/06/28 03:42:10;;;;;;;3.15;1.90;;;;;;;;;;4997443;28;20034;-86
2022/06/28 03:44:36;;;;;;;4.50;2.00;;;;;;;;;;4997626;28;20386;-85
2022/06/28 03:47:02;;;;;;;3.85;2.20;;;;;;;;;;4997268;28;20081;-86
2022/06/28 03:49:27;;;;;;;2.38;1.60;;;;;;;;;;5014087;28;20037;-86
2022/06/28 03:51:52;;;;;;;3.55;2.10;;;;;;;;;;5013823;28;20026;-86
2022/06/28 03:54:18;;;;;;;3.90;1.95;;;;;;;;;;5013380;28;20030;-86
2022/06/28 03:56:43;;;;;;;4.05;2.00;;;;;;;;;;5015372;28;20030;-86
2022/06/28 03:59:08;;;;;;;2.53;1.70;;;;;;;;;;5013505;28;20088;-86
2022/06/28 04:01:34;;;;;;;4.43;1.98;;;;;;;;;;5014688;28;20030;-86
2022/06/28 04:03:59;;;;;;;2.92;2.20;;;;;;;;;;5014545;28;20046;-86
2022/06/28 04:06:24;;;;;;;3.45;1.80;;;;;;;;;;4997173;28;20492;-86
2022/06/28 04:08:50;;;;;;;3.63;2.20;;;;;;;;;;5013129;28;20104;-86
2022/06/28 04:11:16;;;;;;;2.92;1.67;;;;;;;;;;5013418;28;20030;-86
2022/06/28 04:13:43;;;;;;;2.83;1.90;;;;;;;;;;5015189;28;20121;-85
2022/06/28 04:16:09;;;;;;;2.95;1.40;;;;;;;;;;5020744;28;20432;-88
2022/06/28 04:18:34;;;;;;;1.60;1.27;;;;;;;;;;5001963;28;20034;-87
2022/06/28 04:21:00;;;;;;;2.88;1.40;;;;;;;;;;5018249;28;20030;-86
2022/06/28 04:23:26;;;;;;;6.28;1.75;;;;;;;;;;4998312;28;20136;-85
2022/06/28 04:25:51;;;;;;;5.25;1.65;;;;;;;;;;5013133;28;20492;-87
2022/06/28 04:28:16;;;;;;;2.15;1.20;;;;;;;;;;5017444;28;20465;-86
2022/06/28 04:30:45;;;;;;;3.15;1.50;;;;;;;;;;4989185;28;20065;-86
2022/06/28 04:33:10;;;;;;;2.97;1.65;;;;;;;;;;4999401;28;20049;-85
2022/06/28 04:35:36;;;;;;;5.25;1.80;;;;;;;;;;5015398;28;20022;-85
2022/06/28 04:38:01;;;;;;;6.70;2.63;;;;;;;;;;5013374;28;20521;-85
2022/06/28 04:40:27;;;;;;;6.60;1.85;;;;;;;;;;4996192;28;20084;-84
2022/06/28 04:42:53;;;;;;;5.40;2.25;;;;;;;;;;5012220;28;20137;-81
2022/06/28 04:45:18;;;;;;;6.55;1.80;;;;;;;;;;5011699;28;20125;-82
2022/06/28 04:47:44;;;;;;;6.72;2.47;;;;;;;;;;5011978;28;20349;-81
2022/06/28 04:50:09;;;;;;;5.25;2.20;;;;;;;;;;5012645;28;20439;-85
2022/06/28 04:52:36;;;;;;;4.85;2.17;;;;;;;;;;5012761;28;20041;-86
2022/06/28 04:55:02;;;;;;;6.47;1.83;;;;;;;;;;5012476;28;20022;-86
2022/06/28 04:57:28;;;;;;;4.38;1.92;;;;;;;;;;5012902;28;20364;-86
2022/06/28 04:59:56;;;;;;;9.07;2.13;;;;;;;;;;4998327;28;20096;-85
2022/06/28 05:02:22;;;;;;;6.82;1.73;;;;;;;;;;5000451;28;20030;-84
2022/06/28 05:04:47;;;;;;;4.97;1.80;;;;;;;;;;5013293;28;20072;-87
2022/06/28 05:07:13;;;;;;;12.23;3.10;;;;;;;;;;4996971;28;20034;-87
2022/06/28 05:09:38;;;;;;;14.10;3.53;;;;;;;;;;4981036;28;20025;-86
2022/06/28 05:12:04;;;;;;;15.27;3.85;;;;;;;;;;5014691;28;20029;-87
2022/06/28 05:14:30;;;;;;;8.55;3.60;;;;;;;;;;5013842;28;20038;-86
2022/06/28 05:16:55;;;;;;;14.43;3.28;;;;;;;;;;5013278;28;20033;-85
2022/06/28 05:19:20;;;;;;;10.95;3.35;;;;;;;;;;5013953;28;20034;-86
2022/06/28 05:21:46;;;;;;;7.47;2.85;;;;;;;;;;4996627;28;20033;-86
2022/06/28 05:24:11;;;;;;;11.70;3.30;;;;;;;;;;5014117;28;20033;-85
2022/06/28 05:26:37;;;;;;;14.48;3.80;;;;;;;;;;5015008;28;20130;-84
2022/06/28 05:29:02;;;;;;;14.77;3.30;;;;;;;;;;5026546;28;20030;-86
2022/06/28 05:31:28;;;;;;;13.70;3.53;;;;;;;;;;5032843;28;20395;-86
2022/06/28 05:33:55;;;;;;;8.10;2.92;;;;;;;;;;5034485;28;20081;-86
2022/06/28 05:36:20;;;;;;;6.50;2.50;;;;;;;;;;5021152;28;20123;-85
2022/06/28 05:38:46;;;;;;;10.68;3.35;;;;;;;;;;5013164;28;20484;-85
2022/06/28 05:41:11;;;;;;;9.15;2.63;;;;;;;;;;5018801;28;20356;-85
2022/06/28 05:43:36;;;;;;;7.47;2.63;;;;;;;;;;5017989;28;20102;-84
2022/06/28 05:46:02;;;;;;;7.03;2.50;;;;;;;;;;5019463;28;20034;-86
2022/06/28 05:48:27;;;;;;;5.20;2.55;;;;;;;;;;5019724;28;20033;-86
2022/06/28 05:50:53;;;;;;;7.82;2.35;;;;;;;;;;5017411;28;20038;-87
2022/06/28 05:53:18;;;;;;;8.30;2.10;;;;;;;;;;5017536;28;20100;-84
2022/06/28 05:55:44;;;;;;;7.25;2.33;;;;;;;;;;5016688;28;20068;-86
2022/06/28 05:58:09;;;;;;;5.93;2.00;;;;;;;;;;5016276;28;20515;-85
2022/06/28 06:00:37;;;;;;;5.38;2.22;;;;;;;;;;5016494;28;20469;-84
2022/06/28 06:03:03;;;;;;;7.38;1.80;;;;;;;;;;5015039;28;20397;-85
2022/06/28 06:05:28;;;;;;;5.80;1.88;;;;;;;;;;5015118;28;20029;-86
2022/06/28 06:07:54;;;;;;;4.22;1.77;;;;;;;;;;5015090;28;20045;-86
2022/06/28 06:10:19;;;;;;;6.00;1.70;;;;;;;;;;5016115;28;20495;-86
2022/06/28 06:12:45;;;;;;;4.43;1.80;;;;;;;;;;5015667;28;20033;-86
2022/06/28 06:15:11;;;;;;;4.90;1.77;;;;;;;;;;5014965;28;20473;-85
2022/06/28 06:17:36;;;;;;;4.97;1.80;;;;;;;;;;5015027;28;20495;-85
2022/06/28 06:20:02;;;;;;;4.78;1.95;;;;;;;;;;4998684;28;20038;-86
2022/06/28 06:22:31;;;;;;;4.15;1.80;;;;;;;;;;5017288;28;20036;-85
2022/06/28 06:24:57;;;;;;;4.93;1.50;;;;;;;;;;4986019;28;20421;-86
2022/06/28 06:27:22;;;;;;;5.32;1.65;;;;;;;;;;5017141;28;20029;-86
2022/06/28 06:29:47;;;;;;;4.10;1.73;;;;;;;;;;5014743;28;20113;-87
2022/06/28 06:32:13;;;;;;;4.68;1.42;;;;;;;;;;5016051;28;20033;-87
2022/06/28 06:34:38;;;;;;;4.70;1.90;;;;;;;;;;5014739;28;20038;-87
2022/06/28 06:37:04;;;;;;;3.92;1.63;;;;;;;;;;5015159;28;20052;-86
2022/06/28 06:39:29;;;;;;;4.07;1.33;;;;;;;;;;5014986;28;20063;-85
2022/06/28 06:41:55;;;;;;;3.67;1.50;;;;;;;;;;5015789;28;20033;-85
2022/06/28 06:44:20;;;;;;;3.78;1.33;;;;;;;;;;5015140;28;20056;-86
2022/06/28 06:46:46;;;;;;;3.72;1.27;;;;;;;;;;5016853;28;20038;-85
2022/06/28 06:49:14;;;;;;;3.72;1.25;;;;;;;;;;5018427;28;20053;-85
2022/06/28 06:51:44;;;;;;;3.45;1.60;;;;;;;;;;5018520;28;20096;-85
2022/06/28 06:54:09;;;;;;;3.72;1.52;;;;;;;;;;5014328;28;20084;-85
2022/06/28 06:56:35;;;;;;;3.65;1.60;;;;;;;;;;4998343;28;20431;-86
2022/06/28 06:59:00;;;;;;;3.97;1.52;;;;;;;;;;5014577;28;20033;-86
2022/06/28 07:01:29;;;;;;;2.83;1.20;;;;;;;;;;5016431;28;20069;-85
2022/06/28 07:03:54;;;;;;;3.08;1.00;;;;;;;;;;5004784;28;20439;-85
2022/06/28 07:06:20;;;;;;;5.72;1.48;;;;;;;;;;4999229;28;20038;-86
2022/06/28 07:08:46;;;;;;;2.78;1.20;;;;;;;;;;4997592;28;20030;-86
2022/06/28 07:11:11;;;;;;;3.08;1.17;;;;;;;;;;5014650;28;20045;-86
2022/06/28 07:13:37;;;;;;;1.55;1.13;;;;;;;;;;5015503;28;20033;-86
2022/06/28 07:16:02;;;;;;;3.40;1.40;;;;;;;;;;4997789;28;20044;-86
2022/06/28 07:18:29;;;;;;;2.15;1.15;;;;;;;;;;4997753;28;20034;-86
2022/06/28 07:20:55;;;;;;;1.80;1.20;;;;;;;;;;5014802;28;20026;-86
2022/06/28 07:23:24;;;;;;;3.67;1.48;;;;;;;;;;4999809;28;20397;-86
2022/06/28 07:25:49;;;;;;;3.40;1.23;;;;;;;;;;5015383;28;20029;-86
2022/06/28 07:28:15;;;;;;;2.25;1.38;;;;;;;;;;4999722;28;20033;-87
2022/06/28 07:30:41;;;;;;;5.07;1.38;;;;;;;;;;5014388;28;20025;-87
2022/06/28 07:33:06;;;;;;;4.05;1.25;;;;;;;;;;5013708;28;20038;-87
2022/06/28 07:35:32;;;;;;;3.53;1.30;;;;;;;;;;5014736;28;20037;-87
2022/06/28 07:37:57;;;;;;;4.18;1.70;;;;;;;;;;5013676;28;20053;-87
2022/06/28 07:40:23;;;;;;;2.95;1.00;;;;;;;;;;5013699;28;20463;-87
2022/06/28 07:42:48;;;;;;;3.35;1.23;;;;;;;;;;5013312;28;20029;-87
2022/06/28 07:45:14;;;;;;;6.53;1.42;;;;;;;;;;4997699;28;20483;-87
2022/06/28 07:47:40;;;;;;;3.97;1.30;;;;;;;;;;5016512;28;20026;-87
2022/06/28 07:52:50;;;;;;;3.70;1.67;;;;;;;;;;5013615;28;20164;-85
2022/06/28 07:55:16;;;;;;;4.88;1.42;;;;;;;;;;4999159;28;20072;-86
2022/06/28 07:57:41;;;;;;;8.35;1.38;;;;;;;;;;5014236;28;20457;-86
2022/06/28 08:00:08;;;;;;;2.05;1.13;;;;;;;;;;4996427;28;20113;-87
2022/06/28 08:02:34;;;;;;;3.47;1.25;;;;;;;;;;5016388;28;20030;-87
2022/06/28 08:04:59;;;;;;;1.42;1.05;;;;;;;;;;5015911;28;20072;-87
2022/06/28 08:07:24;;;;;;;2.78;1.25;;;;;;;;;;5016631;28;20057;-87
2022/06/28 08:09:50;;;;;;;8.27;1.30;;;;;;;;;;5013778;28;20033;-87
2022/06/28 08:12:15;;;;;;;5.00;1.15;;;;;;;;;;5016514;28;20108;-85
2022/06/28 08:14:41;;;;;;;5.53;1.33;;;;;;;;;;5015540;28;20034;-86
2022/06/28 08:17:07;;;;;;;4.10;1.52;;;;;;;;;;4997991;28;20034;-86
2022/06/28 08:19:33;;;;;;;5.97;1.60;;;;;;;;;;4997766;28;20037;-87
2022/06/28 08:21:59;;;;;;;3.10;1.48;;;;;;;;;;5013282;28;20060;-86
2022/06/28 08:24:24;;;;;;;5.75;1.33;;;;;;;;;;5014031;28;20101;-86
2022/06/28 08:26:50;;;;;;;4.85;1.25;;;;;;;;;;5014057;28;20030;-86
2022/06/28 08:29:16;;;;;;;3.38;1.45;;;;;;;;;;4996698;28;20552;-85
2022/06/28 08:31:43;;;;;;;2.85;1.15;;;;;;;;;;4979556;28;20068;-86
2022/06/28 08:34:09;;;;;;;2.60;1.20;;;;;;;;;;5014237;28;20435;-86
2022/06/28 08:36:35;;;;;;;2.38;1.40;;;;;;;;;;5012331;28;20053;-85
2022/06/28 08:39:01;;;;;;;3.40;1.10;;;;;;;;;;4996269;28;20040;-85
2022/06/28 08:41:28;;;;;;;3.55;1.50;;;;;;;;;;4996591;28;20498;-85
2022/06/28 08:43:55;;;;;;;4.45;1.30;;;;;;;;;;5012075;28;20049;-85
2022/06/28 08:46:21;;;;;;;3.13;1.08;;;;;;;;;;4979927;28;20026;-85
2022/06/28 08:48:52;;;;;;;2.92;1.20;;;;;;;;;;5017019;28;20029;-84
2022/06/28 08:51:17;;;;;;;3.13;1.48;;;;;;;;;;5021519;28;20041;-84
2022/06/28 08:53:45;;;;;;;7.95;1.52;;;;;;;;;;5005219;28;20018;-84
2022/06/28 08:56:10;;;;;;;7.82;1.50;;;;;;;;;;5017141;28;20026;-84
2022/06/28 08:58:36;;;;;;;1.95;1.25;;;;;;;;;;5000364;28;20087;-85
2022/06/28 09:01:02;;;;;;;6.00;1.58;;;;;;;;;;5000024;28;20053;-84
2022/06/28 09:03:27;;;;;;;6.28;1.50;;;;;;;;;;5017909;28;20445;-87
2022/06/28 09:05:53;;;;;;;18.10;5.05;;;;;;;;;;5015975;28;20060;-84
2022/06/28 09:08:18;;;;;;;24.25;5.22;;;;;;;;;;4999158;28;20524;-84
2022/06/28 09:10:44;;;;;;;15.15;4.28;;;;;;;;;;5016180;28;20057;-85
2022/06/28 09:13:14;;;;;;;14.55;3.30;;;;;;;;;;5012091;28;20502;-84
2022/06/28 09:15:45;;;;;;;15.85;2.83;;;;;;;;;;5012994;28;20045;-84
2022/06/28 09:18:11;;;;;;;8.27;1.88;;;;;;;;;;5016369;28;20052;-83
2022/06/28 09:20:38;;;;;;;9.15;2.00;;;;;;;;;;5012077;28;20037;-84
2022/06/28 09:23:04;;;;;;;11.63;1.75;;;;;;;;;;5012831;28;20037;-84
2022/06/28 09:25:31;;;;;;;4.60;1.70;;;;;;;;;;5012575;28;20033;-82
2022/06/28 09:28:02;;;;;;;7.72;2.00;;;;;;;;;;5012680;28;20325;-83
2022/06/28 09:30:30;;;;;;;6.13;1.95;;;;;;;;;;5013070;28;20369;-83
2022/06/28 09:32:56;;;;;;;6.25;1.60;;;;;;;;;;5011545;28;20120;-83
2022/06/28 09:35:24;;;;;;;2.80;1.55;;;;;;;;;;5011751;28;20121;-83
2022/06/28 09:37:50;;;;;;;6.53;1.73;;;;;;;;;;5011049;28;20025;-83
2022/06/28 09:40:36;;;;;;;8.23;1.60;;;;;;;;;;5014125;28;20033;-83
2022/06/28 09:43:14;;;;;;;4.32;1.15;;;;;;;;;;5011139;28;20523;-83
2022/06/28 09:45:46;;;;;;;3.78;1.35;;;;;;;;;;5012002;28;20050;-83
2022/06/28 09:48:19;;;;;;;5.35;1.60;;;;;;;;;;4994642;28;20439;-84
2022/06/28 09:50:47;;;;;;;3.78;1.38;;;;;;;;;;5010464;28;20030;-84
2022/06/28 09:53:19;;;;;;;4.45;1.10;;;;;;;;;;4995407;28;20494;-83
2022/06/28 09:55:45;;;;;;;5.78;1.55;;;;;;;;;;5012604;28;20112;-83
2022/06/28 09:58:10;;;;;;;4.38;1.20;;;;;;;;;;5012472;28;20460;-83
2022/06/28 10:00:39;;;;;;;4.72;1.48;;;;;;;;;;4995254;28;20034;-82
2022/06/28 10:03:06;;;;;;;5.88;1.50;;;;;;;;;;4996619;28;20061;-83
2022/06/28 10:05:31;;;;;;;4.63;1.25;;;;;;;;;;5000026;28;20473;-82
2022/06/28 10:07:58;;;;;;;4.40;1.50;;;;;;;;;;4992554;28;20046;-83
2022/06/28 10:10:24;;;;;;;3.10;1.20;;;;;;;;;;4991651;28;20119;-84
2022/06/28 10:15:37;;;;;;;3.13;1.10;;;;;;;;;;5012608;28;20045;-83
2022/06/28 10:18:20;;;;;;;3.13;1.17;;;;;;;;;;5016582;28;20030;-83
2022/06/28 10:20:46;;;;;;;4.03;1.27;;;;;;;;;;5030133;28;20026;-83
2022/06/28 10:23:27;;;;;;;5.38;1.17;;;;;;;;;;5032882;28;20060;-83
2022/06/28 10:26:03;;;;;;;1.83;0.98;;;;;;;;;;5035026;28;20045;-84
2022/06/28 10:28:34;;;;;;;3.85;1.00;;;;;;;;;;5036474;28;20014;-83
2022/06/28 10:31:25;;;;;;;2.08;1.00;;;;;;;;;;5038767;28;20037;-83
2022/06/28 10:34:02;;;;;;;3.83;1.45;;;;;;;;;;5038027;28;20041;-83
2022/06/28 10:37:01;;;;;;;3.67;1.20;;;;;;;;;;5037700;28;20033;-83
2022/06/28 10:39:29;;;;;;;3.22;1.15;;;;;;;;;;5023621;28;20061;-84
2022/06/28 10:42:00;;;;;;;5.00;1.20;;;;;;;;;;5016943;28;20041;-84
2022/06/28 10:44:32;;;;;;;3.05;1.05;;;;;;;;;;5028860;28;20057;-83
2022/06/28 10:47:00;;;;;;;2.70;1.30;;;;;;;;;;5019594;28;20026;-84
2022/06/28 10:49:25;;;;;;;4.15;1.17;;;;;;;;;;5015495;28;20033;-84
2022/06/28 10:52:17;;;;;;;1.75;1.05;;;;;;;;;;5014777;28;20037;-84
2022/06/28 10:54:51;;;;;;;2.80;0.95;;;;;;;;;;5007093;28;20081;-83
2022/06/28 10:57:22;;;;;;;2.88;0.82;;;;;;;;;;5012660;28;20021;-83
2022/06/28 10:59:50;;;;;;;1.10;0.93;;;;;;;;;;5016813;28;20041;-83
2022/06/28 11:02:15;;;;;;;2.42;0.75;;;;;;;;;;5015309;28;20386;-83
2022/06/28 11:04:41;;;;;;;3.40;0.95;;;;;;;;;;4997664;28;20026;-83
2022/06/28 11:07:20;;;;;;;2.88;0.93;;;;;;;;;;4997318;28;20038;-83
2022/06/28 11:10:00;;;;;;;3.20;1.10;;;;;;;;;;5015229;28;20137;-83
2022/06/28 11:12:29;;;;;;;1.52;0.88;;;;;;;;;;5016433;28;20064;-83
2022/06/28 11:14:56;;;;;;;2.50;1.00;;;;;;;;;;5016381;28;20153;-82
2022/06/28 11:17:43;;;;;;;3.75;0.82;;;;;;;;;;5016382;28;20036;-81
2022/06/28 11:20:11;;;;;;;2.08;0.90;;;;;;;;;;4998891;28;20033;-83
2022/06/28 11:22:44;;;;;;;2.05;0.80;;;;;;;;;;5015413;28;20029;-82
2022/06/28 11:25:12;;;;;;;1.33;0.90;;;;;;;;;;4999048;28;20018;-83
2022/06/28 11:27:53;;;;;;;4.85;1.17;;;;;;;;;;5015555;28;20143;-82
2022/06/28 11:30:27;;;;;;;22.45;1.50;;;;;;;;;;5008038;28;20025;-81
2022/06/28 11:32:55;;;;;;;8.85;1.40;;;;;;;;;;5022188;28;20032;-80
2022/06/28 11:35:25;;;;;;;4.10;1.10;;;;;;;;;;5011871;28;20041;-83
2022/06/28 11:37:59;;;;;;;5.95;1.35;;;;;;;;;;5013653;28;20053;-81
2022/06/28 11:40:27;;;;;;;3.38;0.85;;;;;;;;;;5016640;28;20033;-83
2022/06/28 11:43:08;;;;;;;5.15;1.00;;;;;;;;;;5014949;28;20029;-81
2022/06/28 11:45:37;;;;;;;3.10;1.13;;;;;;;;;;5015482;28;20122;-83
2022/06/28 11:48:09;;;;;;;4.13;1.02;;;;;;;;;;5014089;28;20022;-81
2022/06/28 11:50:40;;;;;;;3.92;1.15;;;;;;;;;;5014429;28;20148;-81
2022/06/28 11:53:06;;;;;;;2.28;1.00;;;;;;;;;;5013832;28;20057;-81
2022/06/28 11:55:42;;;;;;;5.07;1.15;;;;;;;;;;4996764;28;20430;-82
2022/06/28 11:58:25;;;;;;;2.50;1.15;;;;;;;;;;5013685;28;20037;-81
2022/06/28 12:01:09;;;;;;;1.45;0.82;;;;;;;;;;5013189;28;20025;-82
2022/06/28 12:03:58;;;;;;;2.03;0.75;;;;;;;;;;5014262;28;20021;-82
2022/06/28 12:06:30;;;;;;;1.90;0.95;;;;;;;;;;4993454;28;20040;-80
2022/06/28 12:09:00;;;;;;;2.70;0.80;;;;;;;;;;4995715;28;20030;-81
2022/06/28 12:11:51;;;;;;;2.40;0.80;;;;;;;;;;5011775;28;20029;-79
2022/06/28 12:14:18;;;;;;;4.15;0.88;;;;;;;;;;4999209;28;20061;-82
2022/06/28 12:16:50;;;;;;;2.60;1.15;;;;;;;;;;5014566;28;20029;-83
2022/06/28 12:19:17;;;;;;;5.15;0.90;;;;;;;;;;5014299;28;20107;-83
2022/06/28 12:22:03;;;;;;;4.38;0.80;;;;;;;;;;5013417;28;20045;-82
2022/06/28 12:24:40;;;;;;;4.28;1.20;;;;;;;;;;5013956;28;20077;-82
2022/06/28 12:27:06;;;;;;;1.52;0.77;;;;;;;;;;5015051;28;20037;-82
2022/06/28 12:29:32;;;;;;;3.58;1.00;;;;;;;;;;4998266;28;20338;-82
2022/06/28 12:31:57;;;;;;;3.03;0.95;;;;;;;;;;4985827;28;20030;-82
2022/06/28 12:34:23;;;;;;;3.28;1.00;;;;;;;;;;5015408;28;20538;-81
2022/06/28 12:36:48;;;;;;;1.95;0.93;;;;;;;;;;5015626;28;20034;-82
2022/06/28 12:39:14;;;;;;;4.07;0.80;;;;;;;;;;4982654;28;20361;-82
2022/06/28 12:41:39;;;;;;;1.63;0.75;;;;;;;;;;5015489;28;20048;-82
2022/06/28 12:44:05;;;;;;;6.95;1.40;;;;;;;;;;5015550;28;20061;-82
2022/06/28 12:46:30;;;;;;;1.05;0.70;;;;;;;;;;5016975;28;20046;-82
2022/06/28 12:48:55;;;;;;;3.55;0.82;;;;;;;;;;5018327;28;20048;-82
2022/06/28 12:51:21;;;;;;;5.78;0.95;;;;;;;;;;5015269;28;20123;-82
2022/06/28 12:53:46;;;;;;;1.55;0.70;;;;;;;;;;5015690;28;20057;-82
2022/06/28 12:56:13;;;;;;;4.28;1.20;;;;;;;;;;5015839;28;20156;-82
2022/06/28 12:58:38;;;;;;;1.67;0.90;;;;;;;;;;5016681;28;20026;-83
2022/06/28 13:01:07;;;;;;;3.38;1.00;;;;;;;;;;5018258;28;20029;-84
2022/06/28 13:03:32;;;;;;;2.28;0.80;;;;;;;;;;5018207;28;20392;-82
2022/06/28 13:05:57;;;;;;;3.55;1.13;;;;;;;;;;5000466;28;20034;-83
2022/06/28 13:08:23;;;;;;;1.08;0.80;;;;;;;;;;5016777;28;20075;-83
2022/06/28 13:10:48;;;;;;;2.28;0.90;;;;;;;;;;5000856;28;20038;-82
2022/06/28 13:13:19;;;;;;;3.40;0.80;;;;;;;;;;5020736;28;20026;-81
2022/06/28 13:15:45;;;;;;;1.17;0.60;;;;;;;;;;5019175;28;20022;-82
2022/06/28 13:18:10;;;;;;;3.10;0.90;;;;;;;;;;5001100;28;20037;-82
2022/06/28 13:20:35;;;;;;;3.35;0.98;;;;;;;;;;5017105;28;20029;-83
2022/06/28 13:23:01;;;;;;;8.20;1.30;;;;;;;;;;5016779;28;20157;-83
2022/06/28 13:25:26;;;;;;;1.58;1.00;;;;;;;;;;5018100;28;20113;-82
2022/06/28 13:27:52;;;;;;;1.60;0.90;;;;;;;;;;4999052;28;20034;-82
2022/06/28 13:30:17;;;;;;;1.73;1.10;;;;;;;;;;5015114;28;20104;-82
2022/06/28 13:32:42;;;;;;;3.78;0.80;;;;;;;;;;4998574;28;20034;-83
2022/06/28 13:35:08;;;;;;;1.73;1.00;;;;;;;;;;5019478;28;20026;-83
2022/06/28 13:37:33;;;;;;;1.15;0.63;;;;;;;;;;5015903;28;20112;-83
2022/06/28 13:39:59;;;;;;;1.63;0.95;;;;;;;;;;4999267;28;20373;-83
2022/06/28 13:42:24;;;;;;;2.22;0.82;;;;;;;;;;5015800;28;20041;-83
2022/06/28 13:44:50;;;;;;;2.92;1.00;;;;;;;;;;4998152;28;20077;-83
2022/06/28 13:47:16;;;;;;;2.53;0.95;;;;;;;;;;5015766;28;20406;-83
2022/06/28 13:49:41;;;;;;;7.60;0.90;;;;;;;;;;5014161;28;20029;-82
2022/06/28 13:52:08;;;;;;;2.60;1.27;;;;;;;;;;4997808;28;20030;-83
2022/06/28 13:54:33;;;;;;;1.90;0.80;;;;;;;;;;5015339;28;20061;-82
2022/06/28 13:56:59;;;;;;;2.38;0.82;;;;;;;;;;5015420;28;20030;-83
2022/06/28 13:59:24;;;;;;;1.98;1.00;;;;;;;;;;5016635;28;20070;-82
2022/06/28 14:01:50;;;;;;;2.78;0.90;;;;;;;;;;5015245;28;20045;-82
2022/06/28 14:04:16;;;;;;;2.72;0.70;;;;;;;;;;5019899;28;20472;-83
2022/06/28 14:06:41;;;;;;;1.73;0.60;;;;;;;;;;5020260;28;20046;-83
2022/06/28 14:09:07;;;;;;;4.03;0.73;;;;;;;;;;5019373;28;20105;-82
2022/06/28 14:11:32;;;;;;;2.35;1.00;;;;;;;;;;5002399;28;20030;-83
2022/06/28 14:13:57;;;;;;;1.63;0.80;;;;;;;;;;5018337;28;20065;-83
2022/06/28 14:16:23;;;;;;;1.63;0.90;;;;;;;;;;5001336;28;20468;-83
2022/06/28 14:18:48;;;;;;;2.15;0.70;;;;;;;;;;5000959;28;20033;-83
2022/06/28 14:21:14;;;;;;;2.83;0.88;;;;;;;;;;5015478;28;20481;-84
2022/06/28 14:23:39;;;;;;;2.35;0.85;;;;;;;;;;5017758;28;20030;-81
2022/06/28 14:26:04;;;;;;;3.10;0.80;;;;;;;;;;5015535;28;20064;-82
2022/06/28 14:28:31;;;;;;;3.00;0.90;;;;;;;;;;5000976;28;20038;-83
2022/06/28 14:30:56;;;;;;;3.10;1.15;;;;;;;;;;5000669;28;20053;-83
2022/06/28 14:33:21;;;;;;;2.25;0.90;;;;;;;;;;5015572;28;20341;-83
2022/06/28 14:35:47;;;;;;;2.67;1.05;;;;;;;;;;5016339;28;20488;-83
2022/06/28 14:38:14;;;;;;;3.72;1.33;;;;;;;;;;5015316;28;20042;-84
2022/06/28 14:40:39;;;;;;;4.45;1.00;;;;;;;;;;5015252;28;20060;-83
2022/06/28 14:43:05;;;;;;;4.18;0.93;;;;;;;;;;5016010;28;20038;-83
2022/06/28 14:45:30;;;;;;;5.32;1.27;;;;;;;;;;5014635;28;20065;-82
2022/06/28 14:47:56;;;;;;;2.20;1.08;;;;;;;;;;4999616;28;20034;-83
2022/06/28 14:50:21;;;;;;;3.15;1.20;;;;;;;;;;4998055;28;20029;-83
2022/06/28 14:52:47;;;;;;;2.35;0.82;;;;;;;;;;5018191;28;20061;-81
2022/06/28 14:55:12;;;;;;;2.90;1.10;;;;;;;;;;5000414;28;20034;-83
2022/06/28 14:57:38;;;;;;;4.07;1.10;;;;;;;;;;4999678;28;20060;-83